Matopos, Zimbabwe

10:10 AM CAT on February 09, 2016 (GMT +0200)
Bulawayo | | Change Station
CLOSE
Current Station
Airport
Location: Bulawayo Woodvale,
Elevation: 4350 ft
Nearby Weather Stations

Elev 4350 ft 20.02 °S, 28.62 °E | Updated 10 minutes ago

Clear
Clear
79 °F
Feels Like 79 °F
N
7
Wind Variable Wind from East

Today
High -- | Low -- °F
--% Chance of Precip.
Yesterday
High -- | Low -- °F
Precip. -- in
Pressure 30.18 in
Visibility -9999.0 miles
Clouds
Dew Point 61 °F
Humidity 54%
Rainfall 0.00 in
Snow Depth Not available.
5:53 AM 6:46 PM
New Moon, 1% visible
METAR FVBU 090800Z 10006KT 040V200 CAVOK 26/16 Q1022 NOSIG
Pressure 30.18 in
Visibility -9999.0 miles
Clouds
Dew Point 61 °F
Humidity 54%
Rainfall 0.00 in
Snow Depth Not available.
5:53 AM 6:46 PM
New Moon, 1% visible
METAR FVBU 090800Z 10006KT 040V200 CAVOK 26/16 Q1022 NOSIG

10-Day Weather Forecast

No radar image for this location.
×

Almanac

Astronomy

Feb. 09, 2016 Rise Set
Actual Time
Civil Twilight
Nautical Twilight
Astronomical Twilight
Moon
Length of Visible Light
Length of Day
Tomorrow will be .
, % of the Moon is Illuminated

Today's Extremes

Country Highs Country Lows

Community

WunderPhotos

Upload Photos

1,891,571 photos uploaded!

WunderBlog® & News

Nearby

Air Quality

  Air Quality AQ Index Pollutant
Not available.

Snow Depth

Station Depth Elevation

Earthquake Activity

City Distance Mag. Time & Date
Minimum magnitude displayed is 2.5.

Coastal Water Temperatures

Place Temperature

Stations

Nearby Weather Stations

Station Location Temp. Windchill Dew Point Humidity Wind Precip. Elev Updated Type